Time;durP1;ratioP1;P1;durP2;ratioP2;P2;SDS_P1;SDS_P2;PMS_P1;PMS_P2;Temp;Humidity;BMP_temperature;BMP_pressure;BME280_temperature;BME280_humidity;BME280_pressure;Samples;Min_cycle;Max_cycle;Signal;HPM_P1;HPM_P2
2022/06/03 00:00:51;;;;;;;6.83;3.73;;;;;;;;;;5008723;28;20465;-55
2022/06/03 00:03:39;;;;;;;4.10;3.47;;;;;;;;;;5022234;28;20469;-55
2022/06/03 00:06:21;;;;;;;4.07;3.67;;;;;;;;;;5021244;28;20463;-56
2022/06/03 00:08:47;;;;;;;4.47;4.07;;;;;;;;;;5011831;28;21350;-54
2022/06/03 00:11:20;;;;;;;4.17;3.77;;;;;;;;;;5021753;28;20435;-56
2022/06/03 00:13:52;;;;;;;4.80;3.50;;;;;;;;;;5028620;28;20173;-55
2022/06/03 00:16:37;;;;;;;3.87;3.30;;;;;;;;;;5022705;28;21109;-56
2022/06/03 00:19:11;;;;;;;5.27;4.07;;;;;;;;;;5014793;28;20419;-56
2022/06/03 00:21:40;;;;;;;4.47;4.07;;;;;;;;;;5034631;28;20454;-55
2022/06/03 00:24:07;;;;;;;4.40;3.60;;;;;;;;;;5027776;28;20439;-55
2022/06/03 00:26:33;;;;;;;4.73;3.87;;;;;;;;;;5019721;28;20435;-55
2022/06/03 00:29:18;;;;;;;4.93;3.77;;;;;;;;;;4993752;28;20762;-55
2022/06/03 00:31:47;;;;;;;5.67;4.40;;;;;;;;;;5023601;28;21110;-53
2022/06/03 00:34:16;;;;;;;4.43;3.97;;;;;;;;;;4997343;28;20445;-54
2022/06/03 00:36:54;;;;;;;4.50;3.77;;;;;;;;;;5018156;28;21556;-54
2022/06/03 00:39:30;;;;;;;5.20;3.90;;;;;;;;;;4998211;28;21175;-56
2022/06/03 00:42:17;;;;;;;4.10;3.80;;;;;;;;;;5024372;28;20431;-57
2022/06/03 00:44:55;;;;;;;4.30;3.73;;;;;;;;;;5023117;28;20440;-55
2022/06/03 00:47:40;;;;;;;6.00;4.17;;;;;;;;;;5038155;28;20938;-53
2022/06/03 00:50:10;;;;;;;4.00;3.70;;;;;;;;;;5005837;28;20451;-54
2022/06/03 00:53:10;;;;;;;5.60;3.60;;;;;;;;;;5021799;28;20970;-54
2022/06/03 00:55:56;;;;;;;5.70;3.93;;;;;;;;;;5023333;28;21460;-55
2022/06/03 00:58:41;;;;;;;3.90;3.60;;;;;;;;;;4998394;28;20466;-55
2022/06/03 01:01:25;;;;;;;3.70;3.40;;;;;;;;;;5019132;28;20934;-55
2022/06/03 01:03:53;;;;;;;4.53;4.17;;;;;;;;;;4994979;28;20439;-54
2022/06/03 01:06:22;;;;;;;7.30;4.50;;;;;;;;;;5019835;28;20457;-55
2022/06/03 01:08:48;;;;;;;4.07;3.73;;;;;;;;;;5008688;28;20435;-56
2022/06/03 01:11:24;;;;;;;4.07;3.67;;;;;;;;;;5019540;28;20505;-54
2022/06/03 01:13:50;;;;;;;5.43;4.57;;;;;;;;;;5017968;28;20272;-54
2022/06/03 01:16:36;;;;;;;7.33;3.83;;;;;;;;;;5024252;28;20645;-55
2022/06/03 01:19:12;;;;;;;4.80;4.37;;;;;;;;;;4998081;28;20572;-55
2022/06/03 01:22:02;;;;;;;4.97;4.47;;;;;;;;;;5033029;28;20469;-54
2022/06/03 01:24:43;;;;;;;6.20;4.33;;;;;;;;;;5004266;28;21209;-55
2022/06/03 01:27:22;;;;;;;4.53;4.07;;;;;;;;;;5029241;28;20521;-55
2022/06/03 01:30:07;;;;;;;4.97;4.47;;;;;;;;;;5006213;28;20490;-54
2022/06/03 01:32:46;;;;;;;4.70;4.27;;;;;;;;;;5025584;28;20436;-56
2022/06/03 01:35:32;;;;;;;5.10;4.43;;;;;;;;;;5019727;28;20737;-57
2022/06/03 01:41:15;;;;;;;4.43;4.03;;;;;;;;;;4996153;28;20450;-56
2022/06/03 01:43:41;;;;;;;4.70;4.17;;;;;;;;;;5016512;28;20501;-55
2022/06/03 01:46:12;;;;;;;4.10;3.70;;;;;;;;;;5002112;28;20549;-55
2022/06/03 01:48:57;;;;;;;5.27;4.60;;;;;;;;;;5024378;28;21545;-53
2022/06/03 01:51:32;;;;;;;4.60;4.20;;;;;;;;;;4998023;28;20476;-53
2022/06/03 01:53:58;;;;;;;5.93;4.93;;;;;;;;;;5024589;28;20538;-54
2022/06/03 01:56:24;;;;;;;5.27;4.77;;;;;;;;;;4994902;28;20626;-56
2022/06/03 01:59:12;;;;;;;5.90;4.17;;;;;;;;;;5024377;28;20435;-54
2022/06/03 02:02:07;;;;;;;5.70;4.57;;;;;;;;;;5014114;28;20453;-56
2022/06/03 02:04:49;;;;;;;4.10;3.70;;;;;;;;;;5003920;28;20514;-54
2022/06/03 02:07:34;;;;;;;5.67;5.17;;;;;;;;;;5026781;28;20443;-60
2022/06/03 02:10:20;;;;;;;4.47;4.07;;;;;;;;;;5002143;28;20432;-56
2022/06/03 02:13:03;;;;;;;5.20;4.80;;;;;;;;;;5013807;28;23608;-56
2022/06/03 02:15:42;;;;;;;5.23;4.57;;;;;;;;;;5014603;28;20489;-56
2022/06/03 02:18:20;;;;;;;4.90;4.40;;;;;;;;;;5031939;28;20451;-55
2022/06/03 02:21:05;;;;;;;5.30;4.80;;;;;;;;;;5010919;28;20449;-55
2022/06/03 02:23:39;;;;;;;6.20;5.60;;;;;;;;;;5025614;28;20837;-54
2022/06/03 02:26:19;;;;;;;4.83;4.43;;;;;;;;;;5018913;28;20442;-54
2022/06/03 02:32:09;;;;;;;4.13;3.83;;;;;;;;;;5025434;28;20449;-56
2022/06/03 02:34:59;;;;;;;5.40;3.80;;;;;;;;;;5010727;28;20461;-55
2022/06/03 02:37:39;;;;;;;5.70;5.20;;;;;;;;;;5019647;28;20483;-54
2022/06/03 02:40:23;;;;;;;4.40;4.00;;;;;;;;;;5013560;28;21283;-54
2022/06/03 02:43:10;;;;;;;4.37;3.97;;;;;;;;;;5022426;28;20442;-57
2022/06/03 02:45:39;;;;;;;6.77;4.80;;;;;;;;;;5001069;28;20450;-56
2022/06/03 02:48:08;;;;;;;4.83;4.33;;;;;;;;;;5025070;28;20489;-54
2022/06/03 02:50:41;;;;;;;4.67;4.23;;;;;;;;;;5005879;28;20455;-55
2022/06/03 02:53:39;;;;;;;5.23;4.73;;;;;;;;;;5041632;28;21101;-55
2022/06/03 02:56:14;;;;;;;5.40;4.43;;;;;;;;;;4995778;28;20483;-55
2022/06/03 02:58:43;;;;;;;6.10;4.40;;;;;;;;;;5002285;28;20431;-55
2022/06/03 03:01:13;;;;;;;7.00;4.23;;;;;;;;;;5021485;28;20925;-55
2022/06/03 03:03:41;;;;;;;5.23;4.00;;;;;;;;;;5022950;28;20450;-53
2022/06/03 03:06:20;;;;;;;5.00;4.33;;;;;;;;;;5013780;28;20474;-55
2022/06/03 03:09:05;;;;;;;5.00;4.60;;;;;;;;;;5017156;28;20451;-56
2022/06/03 03:11:52;;;;;;;5.03;4.57;;;;;;;;;;5037445;28;20480;-57
2022/06/03 03:17:42;;;;;;;7.73;4.83;;;;;;;;;;4979132;28;20515;-57
2022/06/03 03:20:11;;;;;;;7.13;5.87;;;;;;;;;;5019878;28;20476;-55
2022/06/03 03:22:44;;;;;;;9.27;5.63;;;;;;;;;;5012388;28;20494;-57
2022/06/03 03:25:14;;;;;;;5.20;4.70;;;;;;;;;;5019822;28;20435;-57
2022/06/03 03:27:43;;;;;;;6.83;4.87;;;;;;;;;;5029894;28;20526;-56
2022/06/03 03:30:12;;;;;;;6.03;5.10;;;;;;;;;;5022300;28;20434;-56
2022/06/03 03:33:00;;;;;;;16.13;5.50;;;;;;;;;;5025376;28;20897;-56
2022/06/03 03:35:47;;;;;;;5.30;4.80;;;;;;;;;;5020591;28;20851;-56
2022/06/03 03:38:43;;;;;;;4.20;3.80;;;;;;;;;;4990905;28;20452;-57
2022/06/03 03:41:19;;;;;;;4.90;4.43;;;;;;;;;;5017991;28;20469;-54
2022/06/03 03:43:44;;;;;;;5.00;4.57;;;;;;;;;;5014331;28;20478;-54
2022/06/03 03:46:20;;;;;;;5.20;4.57;;;;;;;;;;5016700;28;20463;-53
2022/06/03 03:48:52;;;;;;;6.60;4.10;;;;;;;;;;4999921;28;21019;-55
2022/06/03 03:51:41;;;;;;;8.00;4.07;;;;;;;;;;5016201;28;20458;-54
2022/06/03 03:54:07;;;;;;;5.30;3.93;;;;;;;;;;5013937;28;20462;-58
2022/06/03 03:56:33;;;;;;;5.00;4.60;;;;;;;;;;5020798;28;20508;-55
2022/06/03 03:59:18;;;;;;;4.77;4.37;;;;;;;;;;4989316;28;20964;-53
2022/06/03 04:02:05;;;;;;;4.50;4.10;;;;;;;;;;5026063;28;20662;-56
2022/06/03 04:04:53;;;;;;;6.00;5.30;;;;;;;;;;5017445;28;20430;-55
2022/06/03 04:07:52;;;;;;;5.30;4.63;;;;;;;;;;5025348;28;20927;-56
2022/06/03 04:10:33;;;;;;;5.77;4.43;;;;;;;;;;5018015;28;20516;-56
2022/06/03 04:13:18;;;;;;;5.30;4.30;;;;;;;;;;5023019;28;20434;-57
2022/06/03 04:15:44;;;;;;;4.53;4.07;;;;;;;;;;5022438;28;20494;-56
2022/06/03 04:18:38;;;;;;;6.80;5.07;;;;;;;;;;5027977;28;20444;-56
2022/06/03 04:21:07;;;;;;;5.87;5.30;;;;;;;;;;4986853;28;20451;-57
2022/06/03 04:23:46;;;;;;;4.73;4.33;;;;;;;;;;5021357;28;20514;-55
2022/06/03 04:26:18;;;;;;;5.43;4.90;;;;;;;;;;5004634;28;21032;-56
2022/06/03 04:28:47;;;;;;;4.90;4.40;;;;;;;;;;5023053;28;20427;-57
2022/06/03 04:31:13;;;;;;;5.70;5.10;;;;;;;;;;4989461;28;21094;-56
2022/06/03 04:34:01;;;;;;;6.00;4.47;;;;;;;;;;5000189;28;20431;-56
2022/06/03 04:36:48;;;;;;;5.00;4.60;;;;;;;;;;5012902;28;20832;-56
2022/06/03 04:39:33;;;;;;;5.60;5.10;;;;;;;;;;4989204;28;21425;-56
2022/06/03 04:42:17;;;;;;;10.30;4.93;;;;;;;;;;5021013;28;20435;-58
2022/06/03 04:44:56;;;;;;;6.33;5.40;;;;;;;;;;5008873;28;20435;-55
2022/06/03 04:47:28;;;;;;;5.80;5.27;;;;;;;;;;5022036;28;20444;-57
2022/06/03 04:50:13;;;;;;;7.00;5.93;;;;;;;;;;4961794;28;20735;-57
2022/06/03 04:52:41;;;;;;;6.17;5.00;;;;;;;;;;5015959;28;20440;-54
2022/06/03 04:55:20;;;;;;;5.93;5.33;;;;;;;;;;5013720;28;20538;-56
2022/06/03 04:57:51;;;;;;;7.73;5.70;;;;;;;;;;5017996;28;21411;-57
2022/06/03 05:00:25;;;;;;;6.63;5.97;;;;;;;;;;5006986;28;22844;-58
2022/06/03 05:03:09;;;;;;;9.80;5.57;;;;;;;;;;5024091;28;20799;-56
2022/06/03 05:05:54;;;;;;;10.20;5.53;;;;;;;;;;5000699;28;20431;-55
2022/06/03 05:08:29;;;;;;;6.80;6.10;;;;;;;;;;5008779;28;20446;-58
2022/06/03 05:11:16;;;;;;;7.17;5.43;;;;;;;;;;4997996;28;20455;-56
2022/06/03 05:14:03;;;;;;;6.50;5.00;;;;;;;;;;4998056;28;20637;-57
2022/06/03 05:16:29;;;;;;;5.90;5.40;;;;;;;;;;5013866;28;20876;-58
2022/06/03 05:18:55;;;;;;;6.67;5.70;;;;;;;;;;5015140;28;20423;-57
2022/06/03 05:21:54;;;;;;;7.97;5.10;;;;;;;;;;5013815;28;20444;-58
2022/06/03 05:24:46;;;;;;;7.83;5.30;;;;;;;;;;5016391;28;20496;-58
2022/06/03 05:27:27;;;;;;;8.07;5.50;;;;;;;;;;4985797;28;20944;-59
2022/06/03 05:30:02;;;;;;;6.57;5.97;;;;;;;;;;5018241;28;20435;-56
2022/06/03 05:32:31;;;;;;;7.50;6.80;;;;;;;;;;5010912;28;20967;-58
2022/06/03 05:35:12;;;;;;;5.67;5.17;;;;;;;;;;5017660;28;20440;-57
2022/06/03 05:37:47;;;;;;;6.07;5.00;;;;;;;;;;4988040;28;20499;-57
2022/06/03 05:40:29;;;;;;;5.90;4.93;;;;;;;;;;5002711;28;20467;-57
2022/06/03 05:43:13;;;;;;;6.40;5.80;;;;;;;;;;4978776;28;20465;-56
2022/06/03 05:45:58;;;;;;;6.97;5.53;;;;;;;;;;4998131;28;20501;-56
2022/06/03 05:48:26;;;;;;;8.17;5.10;;;;;;;;;;4976948;28;20444;-58
2022/06/03 05:51:07;;;;;;;8.33;6.80;;;;;;;;;;4993604;28;20845;-57
2022/06/03 05:53:44;;;;;;;6.30;5.70;;;;;;;;;;5003881;28;20492;-57
2022/06/03 05:56:34;;;;;;;8.80;6.30;;;;;;;;;;4972954;28;20459;-58
2022/06/03 05:59:19;;;;;;;6.07;5.47;;;;;;;;;;4989475;28;20462;-58
2022/06/03 06:01:48;;;;;;;6.70;5.13;;;;;;;;;;5008070;28;20475;-56
2022/06/03 06:04:32;;;;;;;5.77;5.17;;;;;;;;;;5002961;28;20444;-57
2022/06/03 06:07:04;;;;;;;7.33;6.17;;;;;;;;;;4988150;28;21627;-58
2022/06/03 06:09:34;;;;;;;8.33;6.30;;;;;;;;;;5022370;28;20980;-57
2022/06/03 06:12:19;;;;;;;7.40;6.70;;;;;;;;;;4993014;28;20878;-57
2022/06/03 06:15:03;;;;;;;6.10;5.50;;;;;;;;;;4997501;28;21781;-56
2022/06/03 06:17:37;;;;;;;6.90;6.30;;;;;;;;;;4988282;28;20587;-57
2022/06/03 06:20:08;;;;;;;6.87;6.17;;;;;;;;;;4968414;28;21449;-58
2022/06/03 06:22:35;;;;;;;7.80;6.20;;;;;;;;;;4997350;28;20443;-56
2022/06/03 06:28:18;;;;;;;8.83;6.23;;;;;;;;;;4972828;28;20967;-59
2022/06/03 06:30:44;;;;;;;6.63;5.83;;;;;;;;;;4997967;28;20444;-56
2022/06/03 06:33:10;;;;;;;8.03;5.47;;;;;;;;;;4982917;28;20431;-57
2022/06/03 06:35:43;;;;;;;11.00;5.50;;;;;;;;;;4998941;28;20556;-56
2022/06/03 06:38:22;;;;;;;8.80;5.40;;;;;;;;;;4985620;28;20185;-58
2022/06/03 06:41:12;;;;;;;8.27;6.43;;;;;;;;;;5021851;28;20438;-56
2022/06/03 06:43:40;;;;;;;6.83;6.23;;;;;;;;;;4988892;28;20446;-56
2022/06/03 06:46:32;;;;;;;7.57;6.10;;;;;;;;;;5012808;28;20442;-60
2022/06/03 06:49:07;;;;;;;6.03;5.10;;;;;;;;;;5003549;28;20504;-57
2022/06/03 06:51:51;;;;;;;5.97;5.37;;;;;;;;;;4973863;28;21132;-57
2022/06/03 06:54:28;;;;;;;7.80;5.60;;;;;;;;;;5014876;28;20621;-56
2022/06/03 06:57:03;;;;;;;6.30;5.77;;;;;;;;;;4977167;28;20789;-57
2022/06/03 06:59:39;;;;;;;5.80;5.30;;;;;;;;;;5016481;28;21003;-57
2022/06/03 07:02:21;;;;;;;9.60;6.73;;;;;;;;;;4994355;28;20430;-57
2022/06/03 07:05:07;;;;;;;7.43;6.20;;;;;;;;;;5016212;28;20419;-57
2022/06/03 07:07:39;;;;;;;6.27;5.63;;;;;;;;;;4990510;28;21127;-57
2022/06/03 07:10:07;;;;;;;6.80;6.17;;;;;;;;;;5016431;28;20427;-56
2022/06/03 07:12:37;;;;;;;6.90;5.43;;;;;;;;;;4992466;28;20525;-56
2022/06/03 07:15:07;;;;;;;7.47;6.10;;;;;;;;;;5013767;28;20462;-57
2022/06/03 07:20:27;;;;;;;6.77;6.17;;;;;;;;;;5021482;28;20939;-58
2022/06/03 07:22:58;;;;;;;9.27;6.97;;;;;;;;;;5013457;28;20478;-57
2022/06/03 07:25:44;;;;;;;6.30;5.70;;;;;;;;;;5021769;28;20531;-59
2022/06/03 07:28:27;;;;;;;6.73;6.13;;;;;;;;;;4979864;28;20458;-58
2022/06/03 07:31:12;;;;;;;5.33;4.93;;;;;;;;;;5012557;28;20543;-57
2022/06/03 07:33:58;;;;;;;9.10;6.90;;;;;;;;;;5016928;28;20843;-57
2022/06/03 07:36:29;;;;;;;6.53;5.93;;;;;;;;;;5008365;28;20467;-58
2022/06/03 07:38:56;;;;;;;7.53;5.60;;;;;;;;;;5016779;28;20495;-59
2022/06/03 07:41:32;;;;;;;5.97;5.47;;;;;;;;;;5001314;28;20435;-56
2022/06/03 07:44:03;;;;;;;7.83;7.13;;;;;;;;;;5012186;28;20540;-57
2022/06/03 07:46:31;;;;;;;6.77;5.73;;;;;;;;;;5000545;28;20538;-57
2022/06/03 07:48:57;;;;;;;5.30;4.80;;;;;;;;;;5019507;28;20487;-56
2022/06/03 07:51:31;;;;;;;5.43;4.90;;;;;;;;;;5003662;28;20513;-57
2022/06/03 07:54:07;;;;;;;5.53;5.03;;;;;;;;;;5017179;28;20443;-57
2022/06/03 07:56:35;;;;;;;5.87;5.37;;;;;;;;;;5012739;28;20542;-57
2022/06/03 07:59:03;;;;;;;5.50;4.43;;;;;;;;;;5004047;28;20510;-58
2022/06/03 08:01:30;;;;;;;6.10;5.20;;;;;;;;;;4991823;28;20521;-58
2022/06/03 08:03:56;;;;;;;5.23;4.83;;;;;;;;;;5033890;28;20439;-58
2022/06/03 08:06:30;;;;;;;5.37;4.87;;;;;;;;;;5015429;28;20539;-58
2022/06/03 08:11:49;;;;;;;5.80;5.30;;;;;;;;;;5015479;28;20765;-57
2022/06/03 08:14:16;;;;;;;7.70;5.03;;;;;;;;;;5029756;28;20427;-58
2022/06/03 08:16:42;;;;;;;4.70;4.27;;;;;;;;;;5019083;28;20566;-57
2022/06/03 08:19:12;;;;;;;4.83;4.40;;;;;;;;;;5001556;28;20835;-58
2022/06/03 08:21:46;;;;;;;5.10;4.70;;;;;;;;;;5010044;28;20550;-57
2022/06/03 08:24:16;;;;;;;5.20;4.70;;;;;;;;;;5023843;28;20431;-56
2022/06/03 08:26:43;;;;;;;6.03;5.20;;;;;;;;;;5017488;28;20489;-58
2022/06/03 08:29:12;;;;;;;5.37;4.83;;;;;;;;;;5009420;28;20431;-58
2022/06/03 08:31:38;;;;;;;6.60;4.90;;;;;;;;;;5010946;28;20427;-58
2022/06/03 08:34:44;;;;;;;7.17;5.37;;;;;;;;;;5019223;28;20622;-59
2022/06/03 08:37:14;;;;;;;5.33;4.47;;;;;;;;;;5026461;28;21318;-58
2022/06/03 08:39:40;;;;;;;5.43;4.20;;;;;;;;;;4991703;28;21314;-57
2022/06/03 08:42:09;;;;;;;5.27;4.77;;;;;;;;;;5023999;28;20527;-58
2022/06/03 08:44:45;;;;;;;7.10;5.47;;;;;;;;;;5009010;28;20513;-58
2022/06/03 08:47:22;;;;;;;8.90;5.20;;;;;;;;;;5031120;28;21017;-58
2022/06/03 08:49:57;;;;;;;5.50;5.00;;;;;;;;;;4997688;28;20449;-56
2022/06/03 08:52:25;;;;;;;5.53;5.03;;;;;;;;;;5021603;28;20447;-56
2022/06/03 08:54:54;;;;;;;9.37;5.90;;;;;;;;;;5034843;28;20512;-56
2022/06/03 08:57:21;;;;;;;5.40;4.90;;;;;;;;;;5020734;28;20482;-57
2022/06/03 08:59:50;;;;;;;7.30;5.27;;;;;;;;;;5013489;28;20447;-57
2022/06/03 09:02:40;;;;;;;6.07;5.00;;;;;;;;;;5022424;28;20591;-57
2022/06/03 09:05:15;;;;;;;6.20;5.60;;;;;;;;;;5005182;28;20443;-57
2022/06/03 09:08:25;;;;;;;5.80;5.30;;;;;;;;;;5022533;28;20455;-57
2022/06/03 09:10:58;;;;;;;7.87;5.53;;;;;;;;;;5018542;28;21190;-57
2022/06/03 09:13:56;;;;;;;10.40;5.20;;;;;;;;;;5019550;28;20621;-57
2022/06/03 09:16:22;;;;;;;5.53;5.03;;;;;;;;;;4995543;28;20847;-57
2022/06/03 09:18:48;;;;;;;10.93;5.33;;;;;;;;;;5003859;28;20462;-58
2022/06/03 09:21:16;;;;;;;7.00;4.87;;;;;;;;;;5025959;28;20932;-56
2022/06/03 09:23:43;;;;;;;5.40;4.90;;;;;;;;;;5009881;28;21496;-57
2022/06/03 09:26:19;;;;;;;5.40;4.90;;;;;;;;;;5019810;28;20446;-56
2022/06/03 09:28:47;;;;;;;4.73;4.33;;;;;;;;;;5036907;28;20442;-56
2022/06/03 09:31:13;;;;;;;5.90;5.10;;;;;;;;;;5031812;28;20441;-57
2022/06/03 09:33:39;;;;;;;5.70;5.03;;;;;;;;;;5013945;28;20443;-59
2022/06/03 09:36:06;;;;;;;5.50;4.83;;;;;;;;;;5024111;28;20440;-57
2022/06/03 09:38:43;;;;;;;5.60;4.33;;;;;;;;;;5013453;28;20452;-57
2022/06/03 09:41:09;;;;;;;5.10;4.67;;;;;;;;;;5011620;28;20489;-56
2022/06/03 09:43:36;;;;;;;5.10;4.53;;;;;;;;;;5022369;28;20435;-57
2022/06/03 09:46:02;;;;;;;4.50;4.10;;;;;;;;;;5022428;28;20232;-59
2022/06/03 09:48:29;;;;;;;4.97;4.20;;;;;;;;;;5023646;28;20574;-58
2022/06/03 09:50:56;;;;;;;5.00;4.50;;;;;;;;;;5005480;28;20784;-56
2022/06/03 09:53:23;;;;;;;4.73;4.23;;;;;;;;;;5022017;28;20419;-56
2022/06/03 09:55:53;;;;;;;4.70;4.30;;;;;;;;;;5001866;28;20451;-57
2022/06/03 09:58:22;;;;;;;4.63;4.23;;;;;;;;;;5018914;28;21003;-58
2022/06/03 10:00:53;;;;;;;4.80;4.30;;;;;;;;;;5009221;28;20561;-56
2022/06/03 10:03:19;;;;;;;5.40;4.87;;;;;;;;;;4999322;28;20456;-57
2022/06/03 10:05:46;;;;;;;5.70;5.10;;;;;;;;;;5021861;28;20435;-56
2022/06/03 10:08:12;;;;;;;6.40;5.80;;;;;;;;;;5015620;28;20443;-57
2022/06/03 10:13:23;;;;;;;5.50;5.00;;;;;;;;;;4985004;28;20287;-56
2022/06/03 10:15:56;;;;;;;7.03;5.47;;;;;;;;;;5031692;28;20531;-57
2022/06/03 10:18:21;;;;;;;5.23;4.73;;;;;;;;;;5019650;28;20467;-58
2022/06/03 10:20:48;;;;;;;5.10;4.60;;;;;;;;;;5022528;28;20475;-59
2022/06/03 10:23:14;;;;;;;6.00;5.40;;;;;;;;;;5023605;28;20251;-57
2022/06/03 10:25:41;;;;;;;9.50;5.30;;;;;;;;;;5021404;28;20446;-58
2022/06/03 10:28:10;;;;;;;5.83;5.33;;;;;;;;;;5005324;28;20447;-62
2022/06/03 10:30:41;;;;;;;5.00;4.60;;;;;;;;;;5014016;28;20467;-58
2022/06/03 10:33:07;;;;;;;5.43;5.03;;;;;;;;;;4997648;28;20830;-57
2022/06/03 10:35:41;;;;;;;5.07;4.67;;;;;;;;;;5013147;28;20442;-58
2022/06/03 10:38:07;;;;;;;5.90;5.40;;;;;;;;;;4999081;28;21612;-57
2022/06/03 10:40:34;;;;;;;6.10;5.47;;;;;;;;;;5001707;28;20436;-56
2022/06/03 10:43:00;;;;;;;5.00;4.50;;;;;;;;;;4971767;28;20439;-56
2022/06/03 10:45:27;;;;;;;5.70;5.13;;;;;;;;;;5013205;28;20501;-55
2022/06/03 10:47:53;;;;;;;5.40;4.70;;;;;;;;;;5002503;28;20443;-57
2022/06/03 10:50:27;;;;;;;5.93;4.90;;;;;;;;;;4994617;28;21037;-56
2022/06/03 11:01:41;;;;;;;4.97;4.20;;;;;;;;;;4990863;28;20443;-56
2022/06/03 11:04:07;;;;;;;6.27;4.43;;;;;;;;;;5009737;28;20538;-56
2022/06/03 11:06:37;;;;;;;5.30;4.90;;;;;;;;;;5004650;28;20439;-55
2022/06/03 11:09:05;;;;;;;5.60;5.00;;;;;;;;;;5017486;28;20450;-56
2022/06/03 11:11:47;;;;;;;6.07;5.47;;;;;;;;;;4981147;28;20688;-56
2022/06/03 11:14:30;;;;;;;6.60;5.27;;;;;;;;;;5022850;28;20523;-56
2022/06/03 11:17:11;;;;;;;6.13;5.53;;;;;;;;;;4988920;28;20506;-56
2022/06/03 11:19:44;;;;;;;8.27;5.13;;;;;;;;;;4999277;28;20530;-54
2022/06/03 11:22:17;;;;;;;5.50;4.87;;;;;;;;;;5015746;28;20520;-56
2022/06/03 11:24:51;;;;;;;5.80;5.30;;;;;;;;;;5014746;28;20428;-56
2022/06/03 11:27:18;;;;;;;5.00;4.60;;;;;;;;;;5018280;28;20948;-56
2022/06/03 11:29:51;;;;;;;5.30;4.90;;;;;;;;;;5015889;28;20455;-56
2022/06/03 11:32:25;;;;;;;5.67;5.03;;;;;;;;;;5018620;28;20506;-57
2022/06/03 11:35:12;;;;;;;5.30;4.90;;;;;;;;;;5009114;28;22194;-57
2022/06/03 11:37:53;;;;;;;4.80;4.40;;;;;;;;;;5014854;28;20880;-57
2022/06/03 11:40:23;;;;;;;5.20;4.70;;;;;;;;;;5008476;28;20450;-55
2022/06/03 11:42:50;;;;;;;5.20;4.70;;;;;;;;;;5025354;28;20450;-56
2022/06/03 11:45:16;;;;;;;6.93;4.77;;;;;;;;;;5022168;28;20430;-55
2022/06/03 11:47:49;;;;;;;5.10;4.60;;;;;;;;;;5024084;28;20551;-52
2022/06/03 11:50:15;;;;;;;7.80;5.00;;;;;;;;;;4993157;28;20450;-53
2022/06/03 11:52:52;;;;;;;6.60;5.53;;;;;;;;;;4997207;28;20437;-55
2022/06/03 11:55:32;;;;;;;6.80;5.03;;;;;;;;;;5009314;28;20539;-55
2022/06/03 11:58:01;;;;;;;6.10;5.60;;;;;;;;;;5023570;28;20469;-54
2022/06/03 12:00:30;;;;;;;5.97;5.30;;;;;;;;;;5008427;28;20446;-55
2022/06/03 12:03:15;;;;;;;6.97;6.40;;;;;;;;;;5002576;28;20490;-54
2022/06/03 12:05:44;;;;;;;6.27;4.93;;;;;;;;;;4994708;28;20461;-53
2022/06/03 12:08:13;;;;;;;6.40;5.80;;;;;;;;;;5015970;28;20447;-55
2022/06/03 12:10:51;;;;;;;5.83;5.40;;;;;;;;;;5021442;28;21295;-55
2022/06/03 12:13:43;;;;;;;7.30;5.60;;;;;;;;;;5047214;28;20446;-54
2022/06/03 12:16:30;;;;;;;5.13;4.73;;;;;;;;;;5033250;28;20500;-56
2022/06/03 12:19:06;;;;;;;7.97;5.47;;;;;;;;;;5024027;28;20454;-56
2022/06/03 12:21:34;;;;;;;6.20;5.60;;;;;;;;;;5011713;28;20428;-55
2022/06/03 12:24:18;;;;;;;6.97;5.40;;;;;;;;;;4987882;28;21297;-57
2022/06/03 12:26:47;;;;;;;6.57;5.87;;;;;;;;;;4999979;28;20454;-55
2022/06/03 12:29:40;;;;;;;7.80;5.60;;;;;;;;;;5031914;28;20887;-56
2022/06/03 12:32:24;;;;;;;6.37;5.77;;;;;;;;;;5010524;28;20960;-55
2022/06/03 12:34:54;;;;;;;6.83;6.30;;;;;;;;;;5018416;28;21126;-56
2022/06/03 12:37:25;;;;;;;6.20;5.60;;;;;;;;;;5017182;28;20493;-54
2022/06/03 12:39:54;;;;;;;6.07;5.37;;;;;;;;;;5013660;28;20506;-56
2022/06/03 12:42:20;;;;;;;6.50;5.33;;;;;;;;;;5002113;28;20438;-55
2022/06/03 12:44:53;;;;;;;5.80;5.23;;;;;;;;;;5023550;28;20437;-56
2022/06/03 12:47:20;;;;;;;5.53;5.10;;;;;;;;;;5027056;28;20509;-53
2022/06/03 12:49:48;;;;;;;6.50;5.90;;;;;;;;;;5034816;28;20474;-55
2022/06/03 12:52:26;;;;;;;7.20;5.17;;;;;;;;;;5031366;28;20447;-53
2022/06/03 12:58:22;;;;;;;5.90;5.30;;;;;;;;;;5024097;28;20462;-55
2022/06/03 13:01:25;;;;;;;6.73;4.80;;;;;;;;;;5007811;28;20532;-54
2022/06/03 13:03:51;;;;;;;5.93;5.43;;;;;;;;;;4962629;28;20561;-54
2022/06/03 13:06:55;;;;;;;6.20;5.60;;;;;;;;;;5006848;28;20565;-55
2022/06/03 13:09:50;;;;;;;5.93;5.23;;;;;;;;;;5017998;28;20481;-55
2022/06/03 13:12:35;;;;;;;6.70;5.20;;;;;;;;;;4978822;28;20440;-55
2022/06/03 13:15:23;;;;;;;6.73;6.13;;;;;;;;;;5003378;28;20772;-54
2022/06/03 13:18:12;;;;;;;6.53;5.83;;;;;;;;;;4979207;28;20487;-58
2022/06/03 13:20:47;;;;;;;7.90;6.17;;;;;;;;;;4988233;28;20525;-56
2022/06/03 13:23:22;;;;;;;6.50;5.90;;;;;;;;;;5000277;28;20458;-54
2022/06/03 13:25:50;;;;;;;10.60;6.83;;;;;;;;;;4989341;28;20446;-56
2022/06/03 13:28:45;;;;;;;6.30;5.70;;;;;;;;;;5010843;28;20444;-56
2022/06/03 13:31:13;;;;;;;7.17;6.57;;;;;;;;;;4995667;28;20440;-56
2022/06/03 13:33:58;;;;;;;8.20;5.97;;;;;;;;;;4994137;28;20456;-54
2022/06/03 13:36:44;;;;;;;8.20;7.40;;;;;;;;;;4995737;28;20496;-54
2022/06/03 13:39:25;;;;;;;6.40;5.80;;;;;;;;;;4990764;28;20579;-54
2022/06/03 13:43:14;;;;;;;6.67;5.80;;;;;;;;;;5014854;28;20443;-55
2022/06/03 13:45:29;;;;;;;6.57;6.07;;;;;;;;;;4946604;28;21080;-55
2022/06/03 13:47:59;;;;;;;7.70;7.00;;;;;;;;;;4993322;28;20435;-55
2022/06/03 13:50:28;;;;;;;7.40;6.80;;;;;;;;;;5002725;28;20460;-55
2022/06/03 13:52:55;;;;;;;7.13;6.43;;;;;;;;;;5001703;28;20527;-57
2022/06/03 13:55:25;;;;;;;8.10;7.40;;;;;;;;;;5006081;28;20498;-55
2022/06/03 13:57:52;;;;;;;8.10;6.57;;;;;;;;;;4975055;28;20488;-56
2022/06/03 14:00:18;;;;;;;10.43;6.73;;;;;;;;;;4997336;28;20446;-57
2022/06/03 14:02:44;;;;;;;6.30;5.70;;;;;;;;;;4963471;28;20440;-57
2022/06/03 14:05:14;;;;;;;6.43;5.83;;;;;;;;;;4996130;28;20434;-55
2022/06/03 14:07:41;;;;;;;6.93;6.30;;;;;;;;;;4986645;28;20481;-55
2022/06/03 14:10:09;;;;;;;6.07;5.53;;;;;;;;;;4994202;28;20441;-55
2022/06/03 14:12:37;;;;;;;6.67;5.77;;;;;;;;;;4978050;28;20841;-55
2022/06/03 14:15:06;;;;;;;6.47;5.97;;;;;;;;;;5003764;28;20484;-57
2022/06/03 14:17:42;;;;;;;14.33;6.57;;;;;;;;;;4975210;28;20476;-56
2022/06/03 14:20:12;;;;;;;13.73;6.47;;;;;;;;;;4992724;28;20465;-56
2022/06/03 14:22:59;;;;;;;5.93;5.43;;;;;;;;;;4983077;28;20436;-57
2022/06/03 14:25:51;;;;;;;6.10;5.60;;;;;;;;;;4997791;28;20543;-54
2022/06/03 14:28:21;;;;;;;6.33;5.73;;;;;;;;;;4993058;28;20471;-54
2022/06/03 14:30:52;;;;;;;7.03;6.37;;;;;;;;;;4998688;28;20445;-60
2022/06/03 14:33:20;;;;;;;6.90;6.30;;;;;;;;;;5002814;28;20549;-56
2022/06/03 14:38:50;;;;;;;6.43;5.83;;;;;;;;;;4991778;28;20451;-55
2022/06/03 14:41:25;;;;;;;7.80;5.70;;;;;;;;;;5002299;28;20518;-56
2022/06/03 14:43:52;;;;;;;6.33;5.73;;;;;;;;;;5002146;28;20505;-55
2022/06/03 14:46:20;;;;;;;12.27;5.60;;;;;;;;;;5008843;28;20448;-54
2022/06/03 14:48:49;;;;;;;7.33;5.83;;;;;;;;;;4980270;28;20455;-54
2022/06/03 14:51:21;;;;;;;8.17;5.73;;;;;;;;;;5009096;28;20477;-52
2022/06/03 14:53:49;;;;;;;6.17;5.57;;;;;;;;;;4999864;28;20439;-56
2022/06/03 14:56:33;;;;;;;6.10;5.60;;;;;;;;;;4998193;28;20440;-55
2022/06/03 14:59:04;;;;;;;7.90;6.30;;;;;;;;;;4989523;28;20480;-56
2022/06/03 15:01:41;;;;;;;7.27;6.53;;;;;;;;;;4996593;28;20528;-54
2022/06/03 15:04:16;;;;;;;6.73;6.10;;;;;;;;;;4994171;28;20433;-56
2022/06/03 15:06:47;;;;;;;6.13;5.53;;;;;;;;;;5002078;28;20423;-56
2022/06/03 15:09:38;;;;;;;6.63;6.03;;;;;;;;;;4990437;28;20428;-56
2022/06/03 15:12:06;;;;;;;6.70;6.00;;;;;;;;;;4995650;28;20514;-55
2022/06/03 15:14:32;;;;;;;8.33;6.33;;;;;;;;;;4973031;28;21369;-58
2022/06/03 15:17:00;;;;;;;6.63;5.57;;;;;;;;;;5018368;28;20559;-59
2022/06/03 15:19:50;;;;;;;8.13;6.60;;;;;;;;;;4973871;28;20472;-63
2022/06/03 15:22:32;;;;;;;6.93;6.33;;;;;;;;;;4992829;28;20441;-56
2022/06/03 15:25:14;;;;;;;6.90;6.30;;;;;;;;;;4975956;28;20441;-53
2022/06/03 15:27:42;;;;;;;7.37;6.63;;;;;;;;;;4998243;28;20436;-58
2022/06/03 15:30:10;;;;;;;8.10;7.40;;;;;;;;;;4993912;28;20419;-56
2022/06/03 15:32:41;;;;;;;8.00;7.33;;;;;;;;;;4995168;28;20436;-57
2022/06/03 15:35:08;;;;;;;11.03;9.10;;;;;;;;;;4988908;28;20435;-56
2022/06/03 15:37:44;;;;;;;7.20;6.60;;;;;;;;;;4992605;28;20519;-56
2022/06/03 15:40:33;;;;;;;8.40;7.70;;;;;;;;;;4997587;28;20439;-56
2022/06/03 15:43:00;;;;;;;8.87;8.17;;;;;;;;;;4995397;28;20544;-56
2022/06/03 15:46:03;;;;;;;7.67;7.07;;;;;;;;;;4973290;28;20602;-58
2022/06/03 15:49:15;;;;;;;8.20;7.40;;;;;;;;;;5000121;28;20447;-56
2022/06/03 15:51:49;;;;;;;7.87;6.90;;;;;;;;;;4997848;28;20440;-57
2022/06/03 15:54:50;;;;;;;9.87;8.50;;;;;;;;;;4993277;28;20467;-56
2022/06/03 15:57:38;;;;;;;8.17;7.40;;;;;;;;;;4975278;28;20533;-56
2022/06/03 16:00:11;;;;;;;9.40;8.60;;;;;;;;;;4997909;28;20953;-56
2022/06/03 16:02:47;;;;;;;8.10;7.33;;;;;;;;;;4986511;28;20436;-57
2022/06/03 16:05:14;;;;;;;9.30;8.50;;;;;;;;;;5001218;28;20448;-56
2022/06/03 16:07:46;;;;;;;9.33;7.80;;;;;;;;;;4985966;28;20944;-56
2022/06/03 16:10:30;;;;;;;8.87;8.07;;;;;;;;;;4997135;28;20838;-56